Time;durP1;ratioP1;P1;durP2;ratioP2;P2;SDS_P1;SDS_P2;PMS_P1;PMS_P2;Temp;Humidity;BMP_temperature;BMP_pressure;BME280_temperature;BME280_humidity;BME280_pressure;Samples;Min_cycle;Max_cycle;Signal;HPM_P1;HPM_P2
2021/05/24 00:00:25;;;;;;;4.80;1.95;;;11.40;90.00;;;;;;5149462;27;20074;-59
2021/05/24 00:02:52;;;;;;;4.80;2.05;;;11.50;89.60;;;;;;5149342;27;20042;-60
2021/05/24 00:05:26;;;;;;;4.63;1.90;;;11.60;88.90;;;;;;5149997;27;20050;-59
2021/05/24 00:07:53;;;;;;;5.00;2.08;;;11.60;88.90;;;;;;5136680;27;20486;-60
2021/05/24 00:10:23;;;;;;;7.75;2.20;;;11.60;88.50;;;;;;5149658;27;20050;-60
2021/05/24 00:13:00;;;;;;;5.50;2.22;;;11.70;89.00;;;;;;5149307;27;20050;-59
2021/05/24 00:15:38;;;;;;;5.85;2.40;;;11.60;89.50;;;;;;5147646;27;20043;-60
2021/05/24 00:18:07;;;;;;;5.18;2.10;;;11.60;90.00;;;;;;5131753;27;20133;-59
2021/05/24 00:20:37;;;;;;;4.15;2.38;;;11.60;90.10;;;;;;5149101;27;20090;-59
2021/05/24 00:23:08;;;;;;;5.68;2.15;;;11.50;90.00;;;;;;5129706;27;20039;-60
2021/05/24 00:25:38;;;;;;;7.28;2.50;;;11.50;90.00;;;;;;5149880;27;20494;-60
2021/05/24 00:28:06;;;;;;;4.78;2.28;;;11.60;89.60;;;;;;5148807;27;20043;-59
2021/05/24 00:30:33;;;;;;;4.85;2.55;;;11.60;90.20;;;;;;5149723;27;20410;-59
2021/05/24 00:33:01;;;;;;;7.00;3.42;;;11.50;90.40;;;;;;5149256;27;20057;-55
2021/05/24 00:35:30;;;;;;;3.88;2.20;;;11.50;90.50;;;;;;5149334;27;20047;-58
2021/05/24 00:38:22;;;;;;;7.03;2.25;;;11.40;91.00;;;;;;5144614;27;20074;-57
2021/05/24 00:40:49;;;;;;;5.65;2.80;;;11.40;91.60;;;;;;5149583;27;20058;-59
2021/05/24 00:43:15;;;;;;;3.53;2.03;;;11.40;91.30;;;;;;5148712;27;20130;-58
2021/05/24 00:45:47;;;;;;;6.15;2.53;;;11.30;91.60;;;;;;5149089;27;20530;-59
2021/05/24 00:48:13;;;;;;;5.22;2.58;;;11.30;91.70;;;;;;5149111;27;20051;-59
2021/05/24 00:50:43;;;;;;;6.65;3.00;;;11.20;92.00;;;;;;5149470;27;20059;-60
2021/05/24 00:53:15;;;;;;;6.07;2.70;;;11.20;92.40;;;;;;5148987;27;20549;-61
2021/05/24 00:55:44;;;;;;;5.05;3.00;;;11.10;92.70;;;;;;5148870;27;20054;-61
2021/05/24 00:58:15;;;;;;;5.82;3.72;;;11.00;93.10;;;;;;5148594;27;20055;-61
2021/05/24 01:00:47;;;;;;;4.83;2.47;;;11.00;93.40;;;;;;5149024;27;20054;-62
2021/05/24 01:03:18;;;;;;;6.65;3.13;;;10.90;93.40;;;;;;5153766;27;20820;-61
2021/05/24 01:05:45;;;;;;;5.70;3.50;;;11.00;93.10;;;;;;5148983;27;20053;-61
2021/05/24 01:08:14;;;;;;;6.93;3.05;;;11.00;93.30;;;;;;5149248;27;20060;-61
2021/05/24 01:10:42;;;;;;;6.10;2.90;;;10.90;93.40;;;;;;5148574;27;20459;-60
2021/05/24 01:13:15;;;;;;;4.20;3.15;;;11.00;93.40;;;;;;5148518;27;20529;-62
2021/05/24 01:15:43;;;;;;;4.90;2.65;;;10.90;93.50;;;;;;5130466;27;20050;-61
2021/05/24 01:18:12;;;;;;;6.55;3.50;;;10.90;93.40;;;;;;5148722;27;20055;-60
2021/05/24 01:20:41;;;;;;;5.65;3.15;;;10.90;93.80;;;;;;5148788;27;20084;-62
2021/05/24 01:23:18;;;;;;;6.85;3.90;;;10.80;93.70;;;;;;5148801;27;20043;-62
2021/05/24 01:25:48;;;;;;;7.20;3.42;;;10.80;93.90;;;;;;5134015;27;20490;-61
2021/05/24 01:28:17;;;;;;;5.70;3.53;;;10.90;93.50;;;;;;5148440;27;20516;-63
2021/05/24 01:30:44;;;;;;;10.50;3.55;;;10.90;93.60;;;;;;5150145;27;20492;-61
2021/05/24 01:33:13;;;;;;;7.22;3.30;;;10.90;93.50;;;;;;5153290;27;20051;-60
2021/05/24 01:35:42;;;;;;;5.85;3.30;;;10.90;93.50;;;;;;5152412;27;20046;-60
2021/05/24 01:38:12;;;;;;;7.47;4.63;;;10.90;93.50;;;;;;5131984;27;20450;-60
2021/05/24 01:40:43;;;;;;;6.93;3.85;;;10.90;93.40;;;;;;5151558;27;20055;-60
2021/05/24 01:43:13;;;;;;;6.35;3.45;;;11.00;93.30;;;;;;5152829;27;20055;-60
2021/05/24 01:45:40;;;;;;;6.85;3.90;;;10.90;93.40;;;;;;5145690;27;20049;-62
2021/05/24 01:48:10;;;;;;;6.70;3.58;;;10.90;93.50;;;;;;5158510;27;20049;-61
2021/05/24 01:50:37;;;;;;;5.13;3.47;;;10.90;93.80;;;;;;5151811;27;20150;-60
2021/05/24 01:53:04;;;;;;;8.85;3.33;;;10.90;93.30;;;;;;5152391;27;20042;-61
2021/05/24 01:55:31;;;;;;;6.97;4.03;;;10.90;93.80;;;;;;5152634;27;20051;-56
2021/05/24 01:58:04;;;;;;;8.10;3.92;;;10.90;93.70;;;;;;5151159;27;20054;-60
2021/05/24 02:00:34;;;;;;;8.70;3.92;;;10.90;94.10;;;;;;5151939;27;20070;-59
2021/05/24 02:03:04;;;;;;;7.60;4.15;;;10.90;94.30;;;;;;5152405;27;20150;-61
2021/05/24 02:05:31;;;;;;;9.60;4.55;;;10.90;94.30;;;;;;5151833;27;20047;-61
2021/05/24 02:08:01;;;;;;;5.68;4.00;;;10.90;94.70;;;;;;5155964;27;20042;-59
2021/05/24 02:10:32;;;;;;;5.53;4.28;;;10.90;95.10;;;;;;5151714;27;20498;-60
2021/05/24 02:12:58;;;;;;;8.15;4.22;;;10.90;95.40;;;;;;5151959;27;20075;-60
2021/05/24 02:15:28;;;;;;;6.00;3.80;;;10.80;95.50;;;;;;5134526;27;20053;-60
2021/05/24 02:17:59;;;;;;;6.50;4.88;;;10.80;95.50;;;;;;5151459;27;20490;-60
2021/05/24 02:20:29;;;;;;;7.68;4.18;;;10.80;96.00;;;;;;5151605;27;20124;-60
2021/05/24 02:23:02;;;;;;;9.27;4.55;;;10.80;96.10;;;;;;5151293;27;20406;-60
2021/05/24 02:25:32;;;;;;;6.45;4.25;;;10.70;96.40;;;;;;5151483;27;20183;-60
2021/05/24 02:28:01;;;;;;;7.32;4.45;;;10.70;96.60;;;;;;5151639;27;20070;-60
2021/05/24 02:30:28;;;;;;;8.13;4.57;;;10.70;96.50;;;;;;5150281;27;20043;-60
2021/05/24 02:32:58;;;;;;;5.97;4.00;;;10.70;96.60;;;;;;5150937;27;20137;-59
2021/05/24 02:35:28;;;;;;;7.78;4.47;;;10.70;96.80;;;;;;5150968;27;20054;-60
2021/05/24 02:37:56;;;;;;;6.13;4.30;;;10.70;97.00;;;;;;5151088;27;20414;-60
2021/05/24 02:40:27;;;;;;;8.57;4.88;;;10.70;97.00;;;;;;5150243;27;20050;-58
2021/05/24 02:42:54;;;;;;;8.07;5.15;;;10.60;96.90;;;;;;5150551;27;20054;-59
2021/05/24 02:45:21;;;;;;;9.60;5.03;;;10.60;97.30;;;;;;5150402;27;20046;-59
2021/05/24 02:47:49;;;;;;;7.55;4.78;;;10.60;97.60;;;;;;5150725;27;20401;-58
2021/05/24 02:50:27;;;;;;;7.75;4.60;;;10.60;97.50;;;;;;5150235;27;20502;-59
2021/05/24 02:52:56;;;;;;;7.47;4.10;;;10.60;97.50;;;;;;5151122;27;20054;-59
2021/05/24 02:55:24;;;;;;;8.88;4.57;;;10.60;97.40;;;;;;5150170;27;20050;-59
2021/05/24 02:57:51;;;;;;;8.20;4.32;;;10.60;97.10;;;;;;5150351;27;20584;-59
2021/05/24 03:00:24;;;;;;;9.18;3.80;;;10.60;97.00;;;;;;5149838;27;20045;-59
2021/05/24 03:02:51;;;;;;;6.55;3.17;;;10.60;97.10;;;;;;5150658;27;20054;-58
2021/05/24 03:05:21;;;;;;;7.20;3.70;;;10.50;96.80;;;;;;5150342;27;20046;-58
2021/05/24 03:07:53;;;;;;;7.65;3.28;;;10.60;96.10;;;;;;5150989;27;20053;-58
2021/05/24 03:10:31;;;;;;;5.10;2.60;;;10.60;95.90;;;;;;5150004;27;20150;-58
2021/05/24 03:13:00;;;;;;;6.15;3.10;;;10.60;96.00;;;;;;5150306;27;20043;-58
2021/05/24 03:15:26;;;;;;;6.78;2.97;;;10.60;96.00;;;;;;5150606;27;20084;-58
2021/05/24 03:17:53;;;;;;;6.82;2.40;;;10.70;96.00;;;;;;5149120;27;20042;-59
2021/05/24 03:20:21;;;;;;;4.78;2.00;;;10.70;95.40;;;;;;5154044;27;20053;-59
2021/05/24 03:22:51;;;;;;;3.45;1.80;;;10.80;95.00;;;;;;5149624;27;20110;-59
2021/05/24 03:25:18;;;;;;;5.40;1.70;;;10.90;94.30;;;;;;5147007;27;20039;-58
2021/05/24 03:27:48;;;;;;;4.75;1.70;;;10.90;94.30;;;;;;5149423;27;20062;-59
2021/05/24 03:30:19;;;;;;;4.68;1.88;;;10.90;94.20;;;;;;5149411;27;20050;-58
2021/05/24 03:32:45;;;;;;;7.13;1.98;;;11.00;94.00;;;;;;5153525;27;20447;-58
2021/05/24 03:35:15;;;;;;;3.60;1.80;;;11.00;93.50;;;;;;5149388;27;20043;-59
2021/05/24 03:37:44;;;;;;;3.78;1.80;;;11.00;93.80;;;;;;5144329;27;20187;-59
2021/05/24 03:40:14;;;;;;;6.00;1.85;;;11.00;93.80;;;;;;5148267;27;20676;-58
2021/05/24 03:42:41;;;;;;;4.53;1.80;;;11.10;93.40;;;;;;5127523;27;20046;-59
2021/05/24 03:45:15;;;;;;;4.97;2.20;;;11.20;93.10;;;;;;5137356;27;20050;-59
2021/05/24 03:47:45;;;;;;;4.38;1.70;;;11.20;92.80;;;;;;5149151;27;20055;-57
2021/05/24 03:50:16;;;;;;;6.90;1.73;;;11.40;92.20;;;;;;5149725;27;20671;-58
2021/05/24 03:52:46;;;;;;;2.83;1.92;;;11.30;92.40;;;;;;5157027;27;20042;-59
2021/05/24 03:55:14;;;;;;;3.50;1.45;;;11.40;91.90;;;;;;5151250;27;20090;-59
2021/05/24 03:57:46;;;;;;;7.53;1.90;;;11.50;91.90;;;;;;5133053;27;20061;-59
2021/05/24 04:00:16;;;;;;;5.30;1.80;;;11.40;91.60;;;;;;5149340;27;20047;-59
2021/05/24 04:02:43;;;;;;;5.93;1.85;;;11.40;91.80;;;;;;5149725;27;20043;-59
2021/05/24 04:05:21;;;;;;;4.60;1.70;;;11.40;91.90;;;;;;5149845;27;20748;-59
2021/05/24 04:07:58;;;;;;;2.95;1.48;;;11.40;92.00;;;;;;5149885;27;20042;-59
2021/05/24 04:13:19;;;;;;;7.47;2.05;;;11.50;91.50;;;;;;5074397;28;20553;-59
2021/05/24 04:15:50;;;;;;;4.22;1.73;;;11.50;91.70;;;;;;5083539;28;20044;-59
2021/05/24 04:18:19;;;;;;;3.38;1.30;;;11.60;91.40;;;;;;5066446;28;20063;-59
2021/05/24 04:20:47;;;;;;;4.40;1.42;;;11.60;91.20;;;;;;5068001;28;20040;-60
2021/05/24 04:23:19;;;;;;;3.17;1.40;;;11.60;91.50;;;;;;5079923;28;20036;-59
2021/05/24 04:25:46;;;;;;;4.32;1.20;;;11.60;91.20;;;;;;5077754;28;20249;-59
2021/05/24 04:28:17;;;;;;;3.47;1.45;;;11.70;91.30;;;;;;5065899;28;20170;-59
2021/05/24 04:30:46;;;;;;;3.90;1.30;;;11.70;91.60;;;;;;5083366;28;20064;-59
2021/05/24 04:33:13;;;;;;;6.50;1.80;;;11.70;91.50;;;;;;5053847;28;20057;-59
2021/05/24 04:35:45;;;;;;;3.47;1.45;;;11.70;91.50;;;;;;5085419;28;20052;-59
2021/05/24 04:38:13;;;;;;;4.95;1.60;;;11.70;91.40;;;;;;5071398;28;20053;-59
2021/05/24 04:40:43;;;;;;;3.95;1.50;;;11.70;91.30;;;;;;5070182;28;20052;-60
2021/05/24 04:43:10;;;;;;;5.40;1.38;;;11.80;91.50;;;;;;5081655;28;20052;-59
2021/05/24 04:45:39;;;;;;;5.18;1.42;;;11.80;91.40;;;;;;5069497;28;20048;-59
2021/05/24 04:48:06;;;;;;;3.47;1.20;;;11.80;91.30;;;;;;5077340;28;20062;-59
2021/05/24 04:50:33;;;;;;;4.22;1.50;;;11.80;91.50;;;;;;5123357;27;20072;-59
2021/05/24 04:53:01;;;;;;;3.38;1.27;;;11.80;91.60;;;;;;5149594;27;20521;-59
2021/05/24 04:55:28;;;;;;;2.72;1.08;;;11.80;91.30;;;;;;5148800;27;20055;-59
2021/05/24 04:57:59;;;;;;;3.10;1.23;;;11.90;91.40;;;;;;5148598;27;20066;-59
2021/05/24 05:00:26;;;;;;;2.83;1.40;;;11.90;91.20;;;;;;5148958;27;20070;-59
2021/05/24 05:02:55;;;;;;;9.43;1.23;;;11.90;91.50;;;;;;5149753;27;20042;-59
2021/05/24 05:05:26;;;;;;;3.22;1.52;;;11.90;91.20;;;;;;5134280;27;20047;-59
2021/05/24 05:07:55;;;;;;;4.18;1.70;;;12.00;91.20;;;;;;5157003;27;20042;-59
2021/05/24 05:10:24;;;;;;;5.38;1.50;;;11.90;91.80;;;;;;5152634;27;20130;-59
2021/05/24 05:12:54;;;;;;;4.75;1.50;;;11.80;92.40;;;;;;5153328;27;20061;-59
2021/05/24 05:15:23;;;;;;;3.92;1.70;;;11.80;92.60;;;;;;5152655;27;20755;-58
2021/05/24 05:17:52;;;;;;;10.38;1.80;;;11.80;92.60;;;;;;5153566;27;20057;-58
2021/05/24 05:20:21;;;;;;;4.82;1.55;;;11.80;93.20;;;;;;5156278;27;20530;-59
2021/05/24 05:22:55;;;;;;;5.95;1.42;;;11.80;93.10;;;;;;5151874;27;20069;-59
2021/05/24 05:25:21;;;;;;;6.50;2.45;;;11.80;93.10;;;;;;5150665;27;20534;-50
2021/05/24 05:27:54;;;;;;;4.50;1.50;;;11.80;92.90;;;;;;5145826;27;20317;-59
2021/05/24 05:30:20;;;;;;;4.50;1.40;;;11.90;92.90;;;;;;5147753;27;20477;-58
2021/05/24 05:32:49;;;;;;;4.10;1.40;;;11.90;93.10;;;;;;5147984;27;20086;-49
2021/05/24 05:35:18;;;;;;;4.85;1.65;;;12.10;92.60;;;;;;5146126;27;20059;-51
2021/05/24 05:37:51;;;;;;;4.88;1.42;;;12.10;92.80;;;;;;5156321;27;20042;-51
2021/05/24 05:40:18;;;;;;;2.47;1.27;;;12.30;92.80;;;;;;5149631;27;20054;-51
2021/05/24 05:42:50;;;;;;;6.03;1.23;;;12.40;92.20;;;;;;5148763;27;20042;-51
2021/05/24 05:45:22;;;;;;;5.82;1.63;;;12.50;92.10;;;;;;5149468;27;20046;-53
2021/05/24 05:47:51;;;;;;;5.10;1.60;;;12.60;92.10;;;;;;5134732;27;20502;-57
2021/05/24 05:50:21;;;;;;;4.45;1.30;;;12.70;91.80;;;;;;5148033;27;20045;-57
2021/05/24 05:52:50;;;;;;;6.15;2.20;;;12.80;91.80;;;;;;5162073;27;20077;-53
2021/05/24 05:55:17;;;;;;;9.00;4.60;;;12.90;91.60;;;;;;5153422;27;20539;-56
2021/05/24 05:57:46;;;;;;;7.97;2.95;;;13.00;91.50;;;;;;5151228;27;20405;-53
2021/05/24 06:00:16;;;;;;;18.83;14.38;;;13.10;91.30;;;;;;5155312;27;20580;-56
2021/05/24 06:02:42;;;;;;;6.00;2.30;;;13.20;91.30;;;;;;5160412;27;20051;-56
2021/05/24 06:05:10;;;;;;;6.95;3.97;;;13.30;91.00;;;;;;5148890;27;20043;-57
2021/05/24 06:07:40;;;;;;;5.15;1.75;;;13.40;90.80;;;;;;5148491;27;20055;-57
2021/05/24 06:10:11;;;;;;;2.97;1.00;;;13.40;89.50;;;;;;5147194;27;20046;-56
2021/05/24 06:12:41;;;;;;;18.40;14.52;;;13.50;90.60;;;;;;5148606;27;20043;-56
2021/05/24 06:15:08;;;;;;;13.80;8.73;;;13.50;90.60;;;;;;5148241;27;20763;-57
2021/05/24 06:17:37;;;;;;;38.83;29.38;;;13.70;90.30;;;;;;5152089;27;20043;-57
2021/05/24 06:20:06;;;;;;;4.57;1.95;;;13.70;90.30;;;;;;5156700;27;20068;-56
2021/05/24 06:22:33;;;;;;;8.70;4.93;;;13.80;89.10;;;;;;5152717;27;20039;-58
2021/05/24 06:25:00;;;;;;;4.50;1.40;;;13.90;89.10;;;;;;5154154;27;20137;-59
2021/05/24 06:27:27;;;;;;;3.47;1.25;;;13.90;89.10;;;;;;5162283;27;20411;-58
2021/05/24 06:29:59;;;;;;;3.15;1.20;;;14.00;89.30;;;;;;5156861;27;20570;-58
2021/05/24 06:32:28;;;;;;;3.58;1.45;;;14.00;88.20;;;;;;5150918;27;20047;-56
2021/05/24 06:34:55;;;;;;;4.30;1.25;;;14.10;90.10;;;;;;5132058;27;20055;-59
2021/05/24 06:37:23;;;;;;;3.08;1.00;;;14.00;88.40;;;;;;5150558;27;20805;-55
2021/05/24 06:39:50;;;;;;;27.50;20.42;;;14.00;88.20;;;;;;5148806;27;20047;-58
2021/05/24 06:42:17;;;;;;;9.73;5.03;;;14.00;88.10;;;;;;5149214;27;20047;-59
2021/05/24 06:44:46;;;;;;;7.20;2.03;;;14.00;89.00;;;;;;5126727;27;20051;-59
2021/05/24 06:47:13;;;;;;;3.83;1.25;;;14.10;88.40;;;;;;5134651;27;20138;-58
2021/05/24 06:49:42;;;;;;;5.35;2.00;;;14.10;88.00;;;;;;5149394;27;20050;-58
2021/05/24 06:52:09;;;;;;;8.80;5.03;;;14.20;87.90;;;;;;5150078;27;20406;-58
2021/05/24 06:54:38;;;;;;;3.22;1.00;;;14.40;88.20;;;;;;5147313;27;20490;-58
2021/05/24 06:57:07;;;;;;;4.18;1.67;;;14.50;88.40;;;;;;5144734;27;20756;-56
2021/05/24 06:59:36;;;;;;;6.32;2.38;;;14.70;88.20;;;;;;5148689;27;20387;-58
2021/05/24 07:02:05;;;;;;;6.65;1.15;;;14.90;87.60;;;;;;5144841;27;20053;-59
2021/05/24 07:04:32;;;;;;;4.15;1.60;;;15.10;86.30;;;;;;5146966;27;20932;-59
2021/05/24 07:07:01;;;;;;;4.65;1.85;;;15.40;86.10;;;;;;5152435;27;20544;-58
2021/05/24 07:09:28;;;;;;;7.03;2.85;;;15.70;85.00;;;;;;5163683;27;20038;-57
2021/05/24 07:11:59;;;;;;;6.15;2.88;;;16.10;84.80;;;;;;5151156;27;20043;-59
2021/05/24 07:14:25;;;;;;;4.55;1.50;;;16.20;83.60;;;;;;5150448;27;20047;-56
2021/05/24 07:16:55;;;;;;;16.30;12.10;;;16.40;82.40;;;;;;5150343;27;20045;-58
2021/05/24 07:19:21;;;;;;;3.25;1.48;;;16.60;82.20;;;;;;5148174;27;20055;-57
2021/05/24 07:21:50;;;;;;;10.63;6.50;;;16.60;81.10;;;;;;5145922;27;20439;-58
2021/05/24 07:24:16;;;;;;;7.88;5.32;;;16.60;80.40;;;;;;5139774;27;20077;-58
2021/05/24 07:26:43;;;;;;;8.27;5.25;;;16.50;79.40;;;;;;5162328;27;20074;-57
2021/05/24 07:29:14;;;;;;;4.72;1.60;;;16.30;80.00;;;;;;5156809;27;20050;-59
2021/05/24 07:31:46;;;;;;;5.72;2.33;;;16.10;77.40;;;;;;5149362;27;20042;-57
2021/05/24 07:34:12;;;;;;;16.20;11.32;;;16.00;79.40;;;;;;5158359;27;20042;-58
2021/05/24 07:36:41;;;;;;;9.65;4.15;;;15.90;79.50;;;;;;5152083;27;20038;-56
2021/05/24 07:39:07;;;;;;;26.08;18.92;;;15.80;80.20;;;;;;5155766;27;20533;-58
2021/05/24 07:41:36;;;;;;;14.77;8.98;;;15.70;80.70;;;;;;5144885;27;20043;-58
2021/05/24 07:44:03;;;;;;;7.03;4.80;;;15.60;80.10;;;;;;5148966;27;20133;-55
2021/05/24 07:46:30;;;;;;;8.45;1.90;;;15.50;80.50;;;;;;5156502;27;20050;-58
2021/05/24 07:48:56;;;;;;;10.40;6.07;;;15.50;81.70;;;;;;5147519;27;20088;-57
2021/05/24 07:51:25;;;;;;;5.18;1.50;;;15.30;80.80;;;;;;5148241;27;20077;-58
2021/05/24 07:53:55;;;;;;;3.60;1.33;;;15.20;80.10;;;;;;5148901;27;20046;-57
2021/05/24 07:56:21;;;;;;;5.55;2.45;;;15.10;80.90;;;;;;5147413;27;20050;-56
2021/05/24 07:58:47;;;;;;;5.75;1.90;;;15.00;81.10;;;;;;5148009;27;20054;-58
2021/05/24 08:01:16;;;;;;;5.05;1.58;;;15.00;82.10;;;;;;5151131;27;20115;-55
2021/05/24 08:03:42;;;;;;;6.25;1.50;;;15.00;82.00;;;;;;5146421;27;20046;-56
2021/05/24 08:06:11;;;;;;;4.25;1.10;;;15.00;82.20;;;;;;5148698;27;20149;-58
2021/05/24 08:08:38;;;;;;;3.42;1.17;;;14.90;81.00;;;;;;5146791;27;20046;-58
2021/05/24 08:11:07;;;;;;;4.15;1.08;;;15.00;80.60;;;;;;5146021;27;20050;-58
2021/05/24 08:13:33;;;;;;;4.45;1.17;;;15.10;80.70;;;;;;5143090;27;20039;-58
2021/05/24 08:16:01;;;;;;;3.03;1.20;;;15.20;81.30;;;;;;5151319;27;20453;-57
2021/05/24 08:18:30;;;;;;;3.70;1.10;;;15.30;80.30;;;;;;5148181;27;20034;-58
2021/05/24 08:20:59;;;;;;;4.05;1.33;;;15.40;81.30;;;;;;5145063;27;20057;-58
2021/05/24 08:23:26;;;;;;;3.72;1.00;;;15.40;78.80;;;;;;5152351;27;20129;-56
2021/05/24 08:25:55;;;;;;;5.15;1.92;;;15.40;79.40;;;;;;5158101;27;20034;-56
2021/05/24 08:28:24;;;;;;;6.70;2.10;;;15.40;78.90;;;;;;5148989;27;20042;-57
2021/05/24 08:30:51;;;;;;;11.18;6.88;;;15.40;78.40;;;;;;5154569;27;20047;-56
2021/05/24 08:33:18;;;;;;;11.43;7.55;;;15.40;79.10;;;;;;5153347;27;20061;-57
2021/05/24 08:35:44;;;;;;;3.65;1.10;;;15.20;76.80;;;;;;5157716;27;20043;-57
2021/05/24 08:38:11;;;;;;;5.80;3.63;;;15.20;79.30;;;;;;5146775;27;20065;-57
2021/05/24 08:40:38;;;;;;;3.03;1.48;;;15.30;80.60;;;;;;5151125;27;20035;-58
2021/05/24 08:43:10;;;;;;;7.40;3.88;;;15.30;80.90;;;;;;5149903;27;20047;-58
2021/05/24 08:45:38;;;;;;;5.82;2.08;;;15.30;81.00;;;;;;5150280;27;20444;-58
2021/05/24 08:48:06;;;;;;;4.72;2.20;;;15.40;81.30;;;;;;5153293;27;20207;-58
2021/05/24 08:50:33;;;;;;;6.45;2.75;;;15.50;82.00;;;;;;5158785;27;20070;-58
2021/05/24 08:52:59;;;;;;;4.00;1.55;;;15.40;82.00;;;;;;5150318;27;20884;-58
2021/05/24 08:55:29;;;;;;;3.90;1.50;;;15.30;84.00;;;;;;5149383;27;20053;-57
2021/05/24 08:57:55;;;;;;;4.10;2.20;;;15.10;84.60;;;;;;5130589;27;20486;-57
2021/05/24 09:00:22;;;;;;;3.17;1.60;;;15.20;85.00;;;;;;5109330;28;20050;-58
2021/05/24 09:02:54;;;;;;;3.53;1.60;;;15.20;85.20;;;;;;5110043;28;20048;-58
2021/05/24 09:05:26;;;;;;;3.85;1.17;;;15.20;84.70;;;;;;5089849;28;20681;-58
2021/05/24 09:07:57;;;;;;;5.38;2.00;;;15.00;85.90;;;;;;5096377;27;20076;-57
2021/05/24 09:10:35;;;;;;;2.20;1.00;;;14.80;85.50;;;;;;5105919;27;20415;-59
2021/05/24 09:20:53;;;;;;;9.27;6.18;;;13.90;87.90;;;;;;5025460;23;20052;-57
2021/05/24 09:23:32;;;;;;;6.45;4.78;;;13.80;89.20;;;;;;5042337;28;20060;-57
2021/05/24 09:26:04;;;;;;;4.50;2.33;;;13.70;89.60;;;;;;5032088;28;20119;-57
2021/05/24 09:28:35;;;;;;;6.13;2.78;;;13.70;90.20;;;;;;5033506;28;20052;-57
2021/05/24 09:31:09;;;;;;;4.25;2.15;;;13.50;90.10;;;;;;5045845;28;20504;-58
2021/05/24 09:33:37;;;;;;;3.67;1.65;;;13.30;90.50;;;;;;5031259;28;20973;-57
2021/05/24 09:36:08;;;;;;;3.85;1.40;;;13.20;91.00;;;;;;5044629;28;20041;-58
2021/05/24 09:38:46;;;;;;;4.20;1.77;;;13.10;91.60;;;;;;5046554;28;20498;-58
2021/05/24 09:41:17;;;;;;;3.15;1.60;;;13.00;91.50;;;;;;5031987;28;20076;-54
2021/05/24 09:43:52;;;;;;;2.97;1.48;;;13.00;91.60;;;;;;5034934;28;20201;-56
2021/05/24 09:46:31;;;;;;;4.45;1.75;;;13.00;92.10;;;;;;5046445;28;20041;-56
2021/05/24 09:49:02;;;;;;;3.60;1.45;;;13.00;92.10;;;;;;5009454;28;20045;-56
2021/05/24 09:51:31;;;;;;;3.38;1.65;;;13.00;92.30;;;;;;5036595;28;20157;-57
2021/05/24 09:53:59;;;;;;;4.25;1.90;;;13.10;92.10;;;;;;5046610;28;20095;-58
2021/05/24 09:56:28;;;;;;;17.40;12.90;;;13.20;92.20;;;;;;5032443;28;20045;-55
2021/05/24 09:59:02;;;;;;;3.38;1.98;;;13.10;92.20;;;;;;5045934;28;20068;-57
2021/05/24 10:01:35;;;;;;;6.47;2.83;;;13.10;92.30;;;;;;5045444;28;20045;-56
2021/05/24 10:04:01;;;;;;;4.70;2.05;;;13.20;92.30;;;;;;5035491;28;20057;-56
2021/05/24 10:06:28;;;;;;;8.70;3.10;;;13.20;92.40;;;;;;5036706;28;20060;-55
2021/05/24 10:08:55;;;;;;;7.15;3.17;;;13.20;92.30;;;;;;5046019;28;20060;-58
2021/05/24 10:11:25;;;;;;;3.42;1.92;;;13.10;92.50;;;;;;5033109;28;20048;-56
2021/05/24 10:13:55;;;;;;;6.53;1.98;;;13.10;92.80;;;;;;5027635;28;20083;-57
2021/05/24 10:16:24;;;;;;;4.07;2.15;;;13.10;93.10;;;;;;5048291;28;20071;-57
2021/05/24 10:18:50;;;;;;;4.10;2.00;;;13.10;93.00;;;;;;5035625;28;20080;-58
2021/05/24 10:21:16;;;;;;;4.78;2.40;;;13.20;92.90;;;;;;5017997;28;20057;-57
2021/05/24 10:23:45;;;;;;;6.43;2.20;;;13.30;93.40;;;;;;5029109;28;20056;-55
2021/05/24 10:26:14;;;;;;;5.00;1.92;;;13.40;93.30;;;;;;5045897;28;20123;-58
2021/05/24 10:28:45;;;;;;;4.55;1.95;;;13.50;92.80;;;;;;5034065;28;20439;-54
2021/05/24 10:31:26;;;;;;;5.60;2.08;;;13.70;92.60;;;;;;5040520;28;20041;-56
2021/05/24 10:33:52;;;;;;;7.93;5.25;;;13.90;93.10;;;;;;5046526;28;20124;-55
2021/05/24 10:36:29;;;;;;;16.13;11.40;;;14.10;92.70;;;;;;5029690;28;20053;-57
2021/05/24 10:39:25;;;;;;;8.70;5.80;;;14.10;92.60;;;;;;5041714;28;20041;-56
2021/05/24 10:41:54;;;;;;;8.98;6.45;;;14.30;91.90;;;;;;5021692;28;20049;-55
2021/05/24 10:44:43;;;;;;;8.60;4.47;;;14.40;93.00;;;;;;5032286;28;20106;-58
2021/05/24 10:47:26;;;;;;;3.95;2.13;;;14.40;91.50;;;;;;5037533;28;20436;-57
2021/05/24 10:50:17;;;;;;;5.50;2.47;;;14.60;92.90;;;;;;5028904;28;20084;-57
2021/05/24 10:53:20;;;;;;;5.65;3.15;;;14.60;92.00;;;;;;5024900;28;20107;-57
2021/05/24 10:55:49;;;;;;;3.63;2.10;;;14.70;92.00;;;;;;5015134;28;20092;-57
2021/05/24 10:58:19;;;;;;;5.05;2.42;;;14.80;92.30;;;;;;5029849;28;20060;-58
2021/05/24 11:01:01;;;;;;;6.80;3.38;;;14.70;91.50;;;;;;5043168;28;20187;-56
2021/05/24 11:03:28;;;;;;;3.85;2.35;;;14.90;91.40;;;;;;5034432;28;20033;-59
2021/05/24 11:06:14;;;;;;;4.90;2.22;;;14.90;90.80;;;;;;5028055;28;20116;-57
2021/05/24 11:09:04;;;;;;;4.47;2.10;;;15.10;90.50;;;;;;5036415;28;20049;-58
2021/05/24 11:11:35;;;;;;;4.82;2.63;;;15.00;90.50;;;;;;5044679;28;20644;-56
2021/05/24 11:14:10;;;;;;;3.92;2.15;;;14.90;90.30;;;;;;5034448;28;20575;-57
2021/05/24 11:16:38;;;;;;;5.53;2.10;;;14.80;90.00;;;;;;5044182;28;20488;-56
2021/05/24 11:19:12;;;;;;;4.03;1.80;;;14.70;89.30;;;;;;5035911;28;20498;-55
2021/05/24 11:21:40;;;;;;;4.65;2.00;;;14.80;90.00;;;;;;5025362;28;20072;-58
2021/05/24 11:27:14;;;;;;;4.78;2.08;;;14.50;89.90;;;;;;5041663;28;20037;-58
2021/05/24 11:29:44;;;;;;;6.05;2.40;;;14.70;91.80;;;;;;5016919;28;20050;-58
2021/05/24 11:32:27;;;;;;;4.07;2.22;;;14.50;91.30;;;;;;5041754;28;20076;-57
2021/05/24 11:34:54;;;;;;;8.00;2.92;;;14.50;91.60;;;;;;5014162;28;20492;-57
2021/05/24 11:37:40;;;;;;;4.57;2.40;;;14.50;91.90;;;;;;5011359;28;20057;-54
2021/05/24 11:40:14;;;;;;;4.28;2.20;;;14.30;91.40;;;;;;5033905;28;20053;-57
2021/05/24 11:42:43;;;;;;;5.80;2.50;;;14.20;91.90;;;;;;5038229;28;20053;-58
2021/05/24 11:45:27;;;;;;;5.93;2.30;;;14.30;92.50;;;;;;5007666;28;20056;-59
2021/05/24 11:47:57;;;;;;;4.18;2.50;;;14.40;92.50;;;;;;5043368;28;20535;-57
2021/05/24 11:50:27;;;;;;;3.15;2.08;;;14.40;92.00;;;;;;5036736;28;20049;-56
2021/05/24 11:52:53;;;;;;;3.58;2.13;;;14.50;92.10;;;;;;5021504;28;20490;-59
2021/05/24 11:55:21;;;;;;;3.90;2.20;;;14.60;92.20;;;;;;5025934;28;20053;-57
2021/05/24 11:57:48;;;;;;;4.55;2.28;;;14.50;92.30;;;;;;5029640;28;20037;-58
2021/05/24 12:00:18;;;;;;;4.60;2.10;;;14.40;91.40;;;;;;5002479;28;20079;-57
2021/05/24 12:02:45;;;;;;;5.75;2.10;;;14.30;91.50;;;;;;5016078;28;20441;-57
2021/05/24 12:05:17;;;;;;;5.47;2.28;;;14.20;91.30;;;;;;5040638;28;20053;-54
2021/05/24 12:07:46;;;;;;;3.70;2.08;;;14.10;92.10;;;;;;5028551;28;20122;-58
2021/05/24 12:10:12;;;;;;;4.75;2.38;;;14.10;91.60;;;;;;5040177;28;20053;-56
2021/05/24 12:12:38;;;;;;;3.53;2.10;;;14.10;92.30;;;;;;5033081;28;20068;-57
2021/05/24 12:15:16;;;;;;;5.97;2.20;;;14.00;92.20;;;;;;5017765;28;20818;-56
2021/05/24 12:17:51;;;;;;;4.50;2.80;;;14.00;92.30;;;;;;5028358;28;20052;-59
2021/05/24 12:20:18;;;;;;;21.63;15.38;;;14.00;92.70;;;;;;5060444;28;20060;-54
2021/05/24 12:22:50;;;;;;;10.95;9.15;;;14.00;92.90;;;;;;5024259;28;20058;-57
2021/05/24 12:25:17;;;;;;;;;;;14.00;93.40;;;;;;5039387;28;20055;-55
2021/05/24 12:27:44;;;;;;;7.32;4.72;;;13.80;93.80;;;;;;5044310;28;19925;-59
2021/05/24 12:30:15;;;;;;;9.55;5.88;;;13.90;93.50;;;;;;5036174;28;20053;-58
2021/05/24 12:32:47;;;;;;;7.47;3.75;;;13.80;94.10;;;;;;5029599;28;20517;-60
2021/05/24 12:35:15;;;;;;;;;;;13.90;94.50;;;;;;5036195;28;20492;-59
2021/05/24 12:37:50;;;;;;;8.23;2.47;;;14.00;95.30;;;;;;5043522;28;19925;-56
2021/05/24 12:40:19;;;;;;;7.18;4.05;;;13.80;94.20;;;;;;5009548;28;20066;-57
2021/05/24 12:42:49;;;;;;;5.20;2.90;;;13.90;94.20;;;;;;5044366;28;20119;-56
2021/05/24 12:45:16;;;;;;;6.15;3.80;;;13.80;94.30;;;;;;5027277;28;20192;-56
2021/05/24 12:47:42;;;;;;;5.15;3.03;;;13.80;94.70;;;;;;5021634;28;20596;-56
2021/05/24 12:50:17;;;;;;;32.42;24.67;;;13.70;94.50;;;;;;5038937;28;20519;-55
2021/05/24 12:52:44;;;;;;;16.88;10.43;;;13.60;94.80;;;;;;5040701;28;21627;-55
2021/05/24 12:55:13;;;;;;;26.73;20.00;;;13.50;95.60;;;;;;5012322;28;20059;-50
2021/05/24 12:57:44;;;;;;;10.20;8.50;;;13.30;95.80;;;;;;5025848;28;20053;-49
2021/05/24 13:00:11;;;;;;;5.22;3.80;;;13.20;96.30;;;;;;5040793;28;20517;-50
2021/05/24 13:02:38;;;;;;;9.82;7.13;;;13.20;96.90;;;;;;5020688;28;20874;-48
2021/05/24 13:05:16;;;;;;;6.25;4.93;;;13.20;96.90;;;;;;5034383;28;20734;-49
2021/05/24 13:08:02;;;;;;;8.25;5.90;;;13.40;97.20;;;;;;5043402;28;20045;-48
2021/05/24 13:10:28;;;;;;;6.30;4.43;;;13.40;97.30;;;;;;5020303;28;20400;-50
2021/05/24 13:13:00;;;;;;;7.95;4.97;;;13.50;96.70;;;;;;5039004;28;20052;-50